CNJ weather

Cloncurry Airport
Cloncurry, Queensland, Australia

Public forecast

Using degrees Celsius for public forecast. Weather courtesy of forecast.io.

METAR (pilot weather report)

Retrieved 2019/04/21 08:00 UTC (34 minutes ago):

YCCY 210800Z AUTO 22006KT 9999 // NCD 30/09 Q1012

TAF (pilot weather forecast)

Closest forecast is Mount Isa Airport, 57.0 nm (105.6 km) W. Retrieved 2019/04/21 06:03 UTC (3 hours ago):

TAF TAF YBMA 210417Z 2106/2118 32008KT CAVOK FM210800 VRB05KT CAVOK